sensor_id;sensor_type;location;lat;lon;timestamp;P1;durP1;ratioP1;P2;durP2;ratioP2
44987;SDS011;35735;52.226;21.254;2024-02-26T00:04:28;35.43;;;22.27;;
44987;SDS011;35735;52.226;21.254;2024-02-26T00:10:10;33.27;;;21.90;;
44987;SDS011;35735;52.226;21.254;2024-02-26T00:15:51;32.70;;;21.05;;
44987;SDS011;35735;52.226;21.254;2024-02-26T00:21:33;32.42;;;21.20;;
44987;SDS011;35735;52.226;21.254;2024-02-26T00:27:15;29.30;;;20.23;;
44987;SDS011;35735;52.226;21.254;2024-02-26T00:32:57;29.93;;;19.90;;
44987;SDS011;35735;52.226;21.254;2024-02-26T00:38:39;27.65;;;18.73;;
44987;SDS011;35735;52.226;21.254;2024-02-26T00:44:20;26.87;;;18.77;;
44987;SDS011;35735;52.226;21.254;2024-02-26T00:50:02;27.05;;;18.25;;
44987;SDS011;35735;52.226;21.254;2024-02-26T00:55:44;25.70;;;18.08;;
44987;SDS011;35735;52.226;21.254;2024-02-26T01:01:26;25.70;;;17.93;;
44987;SDS011;35735;52.226;21.254;2024-02-26T01:07:08;25.65;;;17.77;;
44987;SDS011;35735;52.226;21.254;2024-02-26T01:12:50;29.00;;;18.30;;
44987;SDS011;35735;52.226;21.254;2024-02-26T01:18:32;24.98;;;16.80;;
44987;SDS011;35735;52.226;21.254;2024-02-26T01:24:14;23.57;;;17.47;;
44987;SDS011;35735;52.226;21.254;2024-02-26T01:29:56;25.73;;;17.42;;
44987;SDS011;35735;52.226;21.254;2024-02-26T01:35:37;23.67;;;16.90;;
44987;SDS011;35735;52.226;21.254;2024-02-26T01:41:19;28.30;;;17.13;;
44987;SDS011;35735;52.226;21.254;2024-02-26T01:47:01;24.90;;;16.40;;
44987;SDS011;35735;52.226;21.254;2024-02-26T01:52:44;30.55;;;17.25;;
44987;SDS011;35735;52.226;21.254;2024-02-26T01:58:28;26.87;;;17.27;;
44987;SDS011;35735;52.226;21.254;2024-02-26T02:04:10;24.73;;;16.80;;
44987;SDS011;35735;52.226;21.254;2024-02-26T02:09:52;25.77;;;17.35;;
44987;SDS011;35735;52.226;21.254;2024-02-26T02:15:35;25.05;;;16.90;;
44987;SDS011;35735;52.226;21.254;2024-02-26T02:21:16;28.83;;;17.17;;
44987;SDS011;35735;52.226;21.254;2024-02-26T02:26:58;25.02;;;16.55;;
44987;SDS011;35735;52.226;21.254;2024-02-26T02:32:40;29.17;;;17.43;;
44987;SDS011;35735;52.226;21.254;2024-02-26T02:38:22;25.50;;;16.83;;
44987;SDS011;35735;52.226;21.254;2024-02-26T02:44:04;27.40;;;17.55;;
44987;SDS011;35735;52.226;21.254;2024-02-26T02:49:46;25.92;;;17.85;;
44987;SDS011;35735;52.226;21.254;2024-02-26T02:55:28;26.77;;;16.00;;
44987;SDS011;35735;52.226;21.254;2024-02-26T03:01:10;24.27;;;16.12;;
44987;SDS011;35735;52.226;21.254;2024-02-26T03:06:52;23.42;;;15.50;;
44987;SDS011;35735;52.226;21.254;2024-02-26T03:12:33;26.50;;;16.37;;
44987;SDS011;35735;52.226;21.254;2024-02-26T03:18:16;23.55;;;16.58;;
44987;SDS011;35735;52.226;21.254;2024-02-26T03:23:57;25.40;;;16.43;;
44987;SDS011;35735;52.226;21.254;2024-02-26T03:29:39;25.55;;;16.40;;
44987;SDS011;35735;52.226;21.254;2024-02-26T03:35:21;27.10;;;17.00;;
44987;SDS011;35735;52.226;21.254;2024-02-26T03:41:03;23.57;;;16.73;;
44987;SDS011;35735;52.226;21.254;2024-02-26T03:46:45;23.35;;;15.98;;
44987;SDS011;35735;52.226;21.254;2024-02-26T03:52:27;23.55;;;16.40;;
44987;SDS011;35735;52.226;21.254;2024-02-26T03:58:09;21.70;;;15.27;;
44987;SDS011;35735;52.226;21.254;2024-02-26T04:03:51;24.15;;;15.50;;
44987;SDS011;35735;52.226;21.254;2024-02-26T04:09:33;23.65;;;15.20;;
44987;SDS011;35735;52.226;21.254;2024-02-26T04:15:15;29.90;;;14.80;;
44987;SDS011;35735;52.226;21.254;2024-02-26T04:20:57;29.75;;;17.20;;
44987;SDS011;35735;52.226;21.254;2024-02-26T04:26:39;26.92;;;17.10;;
44987;SDS011;35735;52.226;21.254;2024-02-26T04:32:20;27.25;;;16.80;;
44987;SDS011;35735;52.226;21.254;2024-02-26T04:38:02;28.02;;;17.73;;
44987;SDS011;35735;52.226;21.254;2024-02-26T04:43:44;36.28;;;18.27;;
44987;SDS011;35735;52.226;21.254;2024-02-26T04:49:26;30.58;;;17.35;;
44987;SDS011;35735;52.226;21.254;2024-02-26T04:55:08;37.00;;;20.00;;
44987;SDS011;35735;52.226;21.254;2024-02-26T05:00:50;41.58;;;22.92;;
44987;SDS011;35735;52.226;21.254;2024-02-26T05:06:31;44.27;;;23.90;;
44987;SDS011;35735;52.226;21.254;2024-02-26T05:12:13;38.37;;;21.67;;
44987;SDS011;35735;52.226;21.254;2024-02-26T05:17:55;35.95;;;21.00;;
44987;SDS011;35735;52.226;21.254;2024-02-26T05:23:37;36.30;;;21.35;;
44987;SDS011;35735;52.226;21.254;2024-02-26T05:29:19;37.97;;;22.25;;
44987;SDS011;35735;52.226;21.254;2024-02-26T05:35:01;35.50;;;21.67;;
44987;SDS011;35735;52.226;21.254;2024-02-26T05:40:43;34.38;;;20.88;;
44987;SDS011;35735;52.226;21.254;2024-02-26T05:46:25;39.03;;;22.52;;
44987;SDS011;35735;52.226;21.254;2024-02-26T05:52:07;38.83;;;20.73;;
44987;SDS011;35735;52.226;21.254;2024-02-26T05:57:48;35.97;;;20.67;;
44987;SDS011;35735;52.226;21.254;2024-02-26T06:03:30;34.83;;;20.25;;
44987;SDS011;35735;52.226;21.254;2024-02-26T06:09:12;37.33;;;20.73;;
44987;SDS011;35735;52.226;21.254;2024-02-26T06:14:54;34.08;;;19.62;;
44987;SDS011;35735;52.226;21.254;2024-02-26T06:20:36;36.80;;;20.27;;
44987;SDS011;35735;52.226;21.254;2024-02-26T06:26:18;40.25;;;21.83;;
44987;SDS011;35735;52.226;21.254;2024-02-26T06:32:00;37.53;;;20.73;;
44987;SDS011;35735;52.226;21.254;2024-02-26T06:37:41;35.00;;;20.77;;
44987;SDS011;35735;52.226;21.254;2024-02-26T06:43:23;35.58;;;21.55;;
44987;SDS011;35735;52.226;21.254;2024-02-26T06:49:05;37.60;;;21.83;;
44987;SDS011;35735;52.226;21.254;2024-02-26T06:54:47;34.47;;;22.02;;
44987;SDS011;35735;52.226;21.254;2024-02-26T07:00:29;37.93;;;23.93;;
44987;SDS011;35735;52.226;21.254;2024-02-26T07:06:10;50.17;;;25.83;;
44987;SDS011;35735;52.226;21.254;2024-02-26T07:11:52;39.90;;;26.00;;
44987;SDS011;35735;52.226;21.254;2024-02-26T07:17:34;85.25;;;49.53;;
44987;SDS011;35735;52.226;21.254;2024-02-26T07:23:16;70.37;;;41.53;;
44987;SDS011;35735;52.226;21.254;2024-02-26T07:28:58;37.88;;;26.65;;
44987;SDS011;35735;52.226;21.254;2024-02-26T07:34:40;28.12;;;19.60;;
44987;SDS011;35735;52.226;21.254;2024-02-26T07:40:21;22.50;;;17.27;;
44987;SDS011;35735;52.226;21.254;2024-02-26T07:46:03;33.00;;;21.92;;
44987;SDS011;35735;52.226;21.254;2024-02-26T07:51:45;27.70;;;18.52;;
44987;SDS011;35735;52.226;21.254;2024-02-26T07:57:27;26.42;;;18.25;;
44987;SDS011;35735;52.226;21.254;2024-02-26T08:03:09;22.92;;;17.45;;
44987;SDS011;35735;52.226;21.254;2024-02-26T08:08:51;22.37;;;15.90;;
44987;SDS011;35735;52.226;21.254;2024-02-26T08:14:33;22.20;;;15.30;;
44987;SDS011;35735;52.226;21.254;2024-02-26T08:20:14;20.60;;;16.10;;
44987;SDS011;35735;52.226;21.254;2024-02-26T08:25:56;19.40;;;15.25;;
44987;SDS011;35735;52.226;21.254;2024-02-26T08:31:38;16.42;;;12.80;;
44987;SDS011;35735;52.226;21.254;2024-02-26T08:37:20;13.57;;;11.40;;
44987;SDS011;35735;52.226;21.254;2024-02-26T08:43:02;13.35;;;10.98;;
44987;SDS011;35735;52.226;21.254;2024-02-26T08:48:44;14.30;;;10.87;;
44987;SDS011;35735;52.226;21.254;2024-02-26T08:54:26;12.55;;;10.35;;
44987;SDS011;35735;52.226;21.254;2024-02-26T09:00:08;11.17;;;9.73;;
44987;SDS011;35735;52.226;21.254;2024-02-26T09:05:50;10.77;;;9.30;;
44987;SDS011;35735;52.226;21.254;2024-02-26T09:11:32;13.57;;;11.15;;
44987;SDS011;35735;52.226;21.254;2024-02-26T09:17:14;11.63;;;9.93;;
44987;SDS011;35735;52.226;21.254;2024-02-26T09:22:55;10.90;;;9.55;;
44987;SDS011;35735;52.226;21.254;2024-02-26T09:28:37;11.18;;;10.07;;
44987;SDS011;35735;52.226;21.254;2024-02-26T09:34:19;12.23;;;10.93;;
44987;SDS011;35735;52.226;21.254;2024-02-26T09:40:01;10.77;;;9.68;;
44987;SDS011;35735;52.226;21.254;2024-02-26T09:45:43;10.50;;;9.30;;
44987;SDS011;35735;52.226;21.254;2024-02-26T09:51:25;12.60;;;9.48;;
44987;SDS011;35735;52.226;21.254;2024-02-26T09:57:08;9.77;;;8.77;;
44987;SDS011;35735;52.226;21.254;2024-02-26T10:02:52;9.80;;;8.70;;
44987;SDS011;35735;52.226;21.254;2024-02-26T10:08:36;10.73;;;9.52;;
44987;SDS011;35735;52.226;21.254;2024-02-26T10:14:18;14.38;;;10.07;;
44987;SDS011;35735;52.226;21.254;2024-02-26T10:20:22;13.73;;;10.90;;
44987;SDS011;35735;52.226;21.254;2024-02-26T10:26:03;10.38;;;9.27;;
44987;SDS011;35735;52.226;21.254;2024-02-26T10:31:46;9.70;;;8.20;;
44987;SDS011;35735;52.226;21.254;2024-02-26T10:37:28;10.70;;;8.32;;
44987;SDS011;35735;52.226;21.254;2024-02-26T10:43:09;11.24;;;8.98;;
44987;SDS011;35735;52.226;21.254;2024-02-26T10:48:52;8.73;;;6.70;;
44987;SDS011;35735;52.226;21.254;2024-02-26T10:54:34;8.67;;;6.67;;
44987;SDS011;35735;52.226;21.254;2024-02-26T11:00:19;8.95;;;7.18;;
44987;SDS011;35735;52.226;21.254;2024-02-26T11:06:01;9.10;;;6.90;;
44987;SDS011;35735;52.226;21.254;2024-02-26T11:11:45;8.52;;;6.50;;
44987;SDS011;35735;52.226;21.254;2024-02-26T11:17:28;8.13;;;6.25;;
44987;SDS011;35735;52.226;21.254;2024-02-26T11:23:10;6.40;;;5.73;;
44987;SDS011;35735;52.226;21.254;2024-02-26T11:28:52;8.43;;;5.72;;
44987;SDS011;35735;52.226;21.254;2024-02-26T11:34:35;11.70;;;5.72;;
44987;SDS011;35735;52.226;21.254;2024-02-26T11:40:17;5.67;;;4.87;;
44987;SDS011;35735;52.226;21.254;2024-02-26T11:45:59;7.47;;;5.12;;
44987;SDS011;35735;52.226;21.254;2024-02-26T11:51:41;4.72;;;3.90;;
44987;SDS011;35735;52.226;21.254;2024-02-26T12:03:08;5.75;;;4.40;;
44987;SDS011;35735;52.226;21.254;2024-02-26T12:08:50;10.07;;;3.87;;
44987;SDS011;35735;52.226;21.254;2024-02-26T12:14:32;4.18;;;3.28;;
44987;SDS011;35735;52.226;21.254;2024-02-26T12:20:19;4.53;;;3.28;;
44987;SDS011;35735;52.226;21.254;2024-02-26T12:26:01;6.57;;;3.20;;
44987;SDS011;35735;52.226;21.254;2024-02-26T12:31:43;3.78;;;2.65;;
44987;SDS011;35735;52.226;21.254;2024-02-26T12:37:25;3.30;;;2.53;;
44987;SDS011;35735;52.226;21.254;2024-02-26T12:43:08;2.45;;;2.12;;
44987;SDS011;35735;52.226;21.254;2024-02-26T12:48:50;3.78;;;2.15;;
44987;SDS011;35735;52.226;21.254;2024-02-26T12:54:33;4.53;;;2.12;;
44987;SDS011;35735;52.226;21.254;2024-02-26T13:00:16;2.28;;;1.87;;
44987;SDS011;35735;52.226;21.254;2024-02-26T13:06:03;3.67;;;2.00;;
44987;SDS011;35735;52.226;21.254;2024-02-26T13:11:47;5.68;;;2.45;;
44987;SDS011;35735;52.226;21.254;2024-02-26T13:17:35;4.07;;;2.23;;
44987;SDS011;35735;52.226;21.254;2024-02-26T13:23:17;2.85;;;2.33;;
44987;SDS011;35735;52.226;21.254;2024-02-26T13:29:01;7.35;;;2.80;;
44987;SDS011;35735;52.226;21.254;2024-02-26T13:34:43;3.40;;;3.10;;
44987;SDS011;35735;52.226;21.254;2024-02-26T13:40:25;6.32;;;3.65;;
44987;SDS011;35735;52.226;21.254;2024-02-26T13:46:07;18.12;;;3.30;;
44987;SDS011;35735;52.226;21.254;2024-02-26T13:51:49;2.42;;;2.22;;
44987;SDS011;35735;52.226;21.254;2024-02-26T13:57:31;5.50;;;2.67;;
44987;SDS011;35735;52.226;21.254;2024-02-26T14:03:13;4.62;;;2.83;;
44987;SDS011;35735;52.226;21.254;2024-02-26T14:08:54;3.00;;;2.40;;
44987;SDS011;35735;52.226;21.254;2024-02-26T14:14:36;3.25;;;2.60;;
44987;SDS011;35735;52.226;21.254;2024-02-26T14:20:18;8.17;;;3.40;;
44987;SDS011;35735;52.226;21.254;2024-02-26T14:26:00;4.17;;;3.10;;
44987;SDS011;35735;52.226;21.254;2024-02-26T14:31:42;4.30;;;2.90;;
44987;SDS011;35735;52.226;21.254;2024-02-26T14:37:23;8.43;;;2.93;;
44987;SDS011;35735;52.226;21.254;2024-02-26T14:43:05;6.03;;;3.17;;
44987;SDS011;35735;52.226;21.254;2024-02-26T14:48:47;3.50;;;2.62;;
44987;SDS011;35735;52.226;21.254;2024-02-26T14:54:29;4.60;;;3.60;;
44987;SDS011;35735;52.226;21.254;2024-02-26T15:00:11;9.07;;;3.53;;
44987;SDS011;35735;52.226;21.254;2024-02-26T15:05:53;4.50;;;3.40;;
44987;SDS011;35735;52.226;21.254;2024-02-26T15:11:38;6.68;;;3.15;;
44987;SDS011;35735;52.226;21.254;2024-02-26T15:17:20;6.20;;;3.27;;
44987;SDS011;35735;52.226;21.254;2024-02-26T15:23:03;6.28;;;4.55;;
44987;SDS011;35735;52.226;21.254;2024-02-26T15:28:45;7.37;;;5.20;;
44987;SDS011;35735;52.226;21.254;2024-02-26T15:34:27;6.12;;;4.50;;
44987;SDS011;35735;52.226;21.254;2024-02-26T15:40:09;12.43;;;7.97;;
44987;SDS011;35735;52.226;21.254;2024-02-26T15:45:51;8.65;;;6.45;;
44987;SDS011;35735;52.226;21.254;2024-02-26T15:51:33;8.43;;;6.20;;
44987;SDS011;35735;52.226;21.254;2024-02-26T15:57:15;10.47;;;7.70;;
44987;SDS011;35735;52.226;21.254;2024-02-26T16:02:57;13.23;;;8.50;;
44987;SDS011;35735;52.226;21.254;2024-02-26T16:08:39;15.10;;;8.82;;
44987;SDS011;35735;52.226;21.254;2024-02-26T16:20:26;10.38;;;8.98;;
44987;SDS011;35735;52.226;21.254;2024-02-26T16:26:09;15.00;;;10.90;;
44987;SDS011;35735;52.226;21.254;2024-02-26T16:31:51;19.30;;;12.80;;
44987;SDS011;35735;52.226;21.254;2024-02-26T16:37:33;16.60;;;12.48;;
44987;SDS011;35735;52.226;21.254;2024-02-26T16:43:15;19.02;;;14.95;;
44987;SDS011;35735;52.226;21.254;2024-02-26T16:48:57;21.25;;;15.48;;
44987;SDS011;35735;52.226;21.254;2024-02-26T16:54:39;26.83;;;15.85;;
44987;SDS011;35735;52.226;21.254;2024-02-26T17:00:21;22.33;;;17.43;;
44987;SDS011;35735;52.226;21.254;2024-02-26T17:06:02;28.10;;;18.87;;
44987;SDS011;35735;52.226;21.254;2024-02-26T17:11:45;25.62;;;18.80;;
44987;SDS011;35735;52.226;21.254;2024-02-26T17:17:28;24.80;;;18.35;;
44987;SDS011;35735;52.226;21.254;2024-02-26T17:23:10;27.73;;;20.15;;
44987;SDS011;35735;52.226;21.254;2024-02-26T17:28:52;25.00;;;18.65;;
44987;SDS011;35735;52.226;21.254;2024-02-26T17:34:33;26.65;;;20.12;;
44987;SDS011;35735;52.226;21.254;2024-02-26T17:40:15;25.30;;;19.52;;
44987;SDS011;35735;52.226;21.254;2024-02-26T17:45:57;27.37;;;20.58;;
44987;SDS011;35735;52.226;21.254;2024-02-26T17:51:39;27.33;;;20.65;;
44987;SDS011;35735;52.226;21.254;2024-02-26T17:57:21;30.02;;;22.25;;
44987;SDS011;35735;52.226;21.254;2024-02-26T18:03:03;33.13;;;24.02;;
44987;SDS011;35735;52.226;21.254;2024-02-26T18:08:45;30.08;;;23.62;;
44987;SDS011;35735;52.226;21.254;2024-02-26T18:14:26;32.20;;;23.75;;
44987;SDS011;35735;52.226;21.254;2024-02-26T18:20:08;33.97;;;24.30;;
44987;SDS011;35735;52.226;21.254;2024-02-26T18:25:51;36.13;;;25.77;;
44987;SDS011;35735;52.226;21.254;2024-02-26T18:31:33;36.65;;;28.38;;
44987;SDS011;35735;52.226;21.254;2024-02-26T18:37:15;41.43;;;31.00;;
44987;SDS011;35735;52.226;21.254;2024-02-26T18:42:56;42.67;;;30.08;;
44987;SDS011;35735;52.226;21.254;2024-02-26T18:48:38;43.08;;;31.35;;
44987;SDS011;35735;52.226;21.254;2024-02-26T18:54:20;44.53;;;29.73;;
44987;SDS011;35735;52.226;21.254;2024-02-26T19:00:03;42.88;;;30.34;;
44987;SDS011;35735;52.226;21.254;2024-02-26T19:05:45;44.08;;;29.20;;
44987;SDS011;35735;52.226;21.254;2024-02-26T19:11:27;37.63;;;27.92;;
44987;SDS011;35735;52.226;21.254;2024-02-26T19:17:09;37.95;;;29.20;;
44987;SDS011;35735;52.226;21.254;2024-02-26T19:22:51;40.15;;;29.67;;
44987;SDS011;35735;52.226;21.254;2024-02-26T19:28:33;34.77;;;26.73;;
44987;SDS011;35735;52.226;21.254;2024-02-26T19:34:15;44.78;;;31.65;;
44987;SDS011;35735;52.226;21.254;2024-02-26T19:39:56;43.03;;;32.85;;
44987;SDS011;35735;52.226;21.254;2024-02-26T19:45:38;45.90;;;33.67;;
44987;SDS011;35735;52.226;21.254;2024-02-26T19:51:20;52.50;;;35.35;;
44987;SDS011;35735;52.226;21.254;2024-02-26T19:57:02;41.85;;;29.33;;
44987;SDS011;35735;52.226;21.254;2024-02-26T20:02:44;39.95;;;29.52;;
44987;SDS011;35735;52.226;21.254;2024-02-26T20:08:27;42.97;;;29.95;;
44987;SDS011;35735;52.226;21.254;2024-02-26T20:14:08;37.42;;;27.98;;
44987;SDS011;35735;52.226;21.254;2024-02-26T20:19:50;36.70;;;28.27;;
44987;SDS011;35735;52.226;21.254;2024-02-26T20:25:32;40.60;;;29.73;;
44987;SDS011;35735;52.226;21.254;2024-02-26T20:31:14;42.10;;;30.00;;
44987;SDS011;35735;52.226;21.254;2024-02-26T20:36:56;45.92;;;33.55;;
44987;SDS011;35735;52.226;21.254;2024-02-26T20:42:38;47.10;;;32.67;;
44987;SDS011;35735;52.226;21.254;2024-02-26T20:48:20;40.80;;;29.70;;
44987;SDS011;35735;52.226;21.254;2024-02-26T20:54:02;39.04;;;29.70;;
44987;SDS011;35735;52.226;21.254;2024-02-26T20:59:44;36.75;;;29.35;;
44987;SDS011;35735;52.226;21.254;2024-02-26T21:05:26;43.65;;;32.45;;
44987;SDS011;35735;52.226;21.254;2024-02-26T21:11:08;42.83;;;29.67;;
44987;SDS011;35735;52.226;21.254;2024-02-26T21:16:50;43.30;;;31.35;;
44987;SDS011;35735;52.226;21.254;2024-02-26T21:22:32;45.67;;;31.80;;
44987;SDS011;35735;52.226;21.254;2024-02-26T21:28:13;46.63;;;33.13;;
44987;SDS011;35735;52.226;21.254;2024-02-26T21:33:55;48.00;;;31.77;;
44987;SDS011;35735;52.226;21.254;2024-02-26T21:39:37;41.87;;;29.73;;
44987;SDS011;35735;52.226;21.254;2024-02-26T21:45:19;41.70;;;29.17;;
44987;SDS011;35735;52.226;21.254;2024-02-26T21:51:02;38.57;;;28.23;;
44987;SDS011;35735;52.226;21.254;2024-02-26T21:56:44;38.07;;;26.50;;
44987;SDS011;35735;52.226;21.254;2024-02-26T22:02:25;32.57;;;24.23;;
44987;SDS011;35735;52.226;21.254;2024-02-26T22:08:07;36.15;;;25.12;;
44987;SDS011;35735;52.226;21.254;2024-02-26T22:13:50;35.27;;;25.83;;
44987;SDS011;35735;52.226;21.254;2024-02-26T22:19:32;33.97;;;25.73;;
44987;SDS011;35735;52.226;21.254;2024-02-26T22:25:14;33.20;;;25.17;;
44987;SDS011;35735;52.226;21.254;2024-02-26T22:30:55;36.33;;;25.17;;
44987;SDS011;35735;52.226;21.254;2024-02-26T22:36:37;35.85;;;24.73;;
44987;SDS011;35735;52.226;21.254;2024-02-26T22:42:20;34.63;;;24.50;;
44987;SDS011;35735;52.226;21.254;2024-02-26T22:48:02;34.88;;;24.67;;
44987;SDS011;35735;52.226;21.254;2024-02-26T22:53:45;40.35;;;26.92;;
44987;SDS011;35735;52.226;21.254;2024-02-26T22:59:27;37.95;;;24.73;;
44987;SDS011;35735;52.226;21.254;2024-02-26T23:05:11;34.47;;;25.43;;
44987;SDS011;35735;52.226;21.254;2024-02-26T23:10:54;35.38;;;25.20;;
44987;SDS011;35735;52.226;21.254;2024-02-26T23:16:36;33.15;;;24.25;;
44987;SDS011;35735;52.226;21.254;2024-02-26T23:22:17;33.63;;;23.58;;
44987;SDS011;35735;52.226;21.254;2024-02-26T23:27:59;38.10;;;24.45;;
44987;SDS011;35735;52.226;21.254;2024-02-26T23:33:41;32.13;;;23.62;;
44987;SDS011;35735;52.226;21.254;2024-02-26T23:39:23;31.30;;;23.50;;
44987;SDS011;35735;52.226;21.254;2024-02-26T23:45:05;32.85;;;23.50;;
44987;SDS011;35735;52.226;21.254;2024-02-26T23:50:47;30.70;;;23.35;;
44987;SDS011;35735;52.226;21.254;2024-02-26T23:56:29;33.55;;;23.12;;
